Terminal Aerodrome Forecast
Issued by NWS

Home | Current Version | Previous Version | Text Only | Print | Product List | Glossary On
Versions: 1 2 3 4 5 6 7 8 9 10 11 12 13 14 15 16
053
FTUS43 KEAX 241740
TAFMKC
TAF
KMKC 241740Z 2418/2518 18013G20KT P6SM VCTS SCT040CB BKN050
     FM242300 15007KT P6SM VCSH BKN040
     FM250300 12006KT 5SM -TSRA BKN035CB
     FM250800 VRB06KT 5SM BR VCSH BKN008=

USA.gov is the U.S. government's official web portal to all federal, state and local government web resources and services.